createdAt,value
2022-11-28T00:00:22.549Z,267.70
2022-11-28T00:04:07.394Z,150.40
2022-11-28T00:08:02.970Z,264.70
2022-11-28T00:11:32.805Z,166.10
2022-11-28T00:15:00.641Z,262.70
2022-11-28T00:18:28.041Z,97.80
2022-11-28T00:26:03.893Z,158.50
2022-11-28T00:29:30.539Z,156.40
2022-11-28T00:32:57.298Z,140.50
2022-11-28T00:36:24.847Z,145.20
2022-11-28T00:39:51.489Z,137.20
2022-11-28T00:43:18.089Z,192.80
2022-11-28T00:46:45.499Z,197.30
2022-11-28T00:50:17.760Z,179.40
2022-11-28T00:53:45.948Z,169.30
2022-11-28T00:57:12.877Z,168.50
2022-11-28T01:00:40.142Z,131.50
2022-11-28T01:04:10.144Z,142.30
2022-11-28T01:07:37.536Z,135.90
2022-11-28T01:11:05.160Z,123.50
2022-11-28T01:14:31.874Z,122.20
2022-11-28T01:18:00.105Z,119.70
2022-11-28T01:21:29.896Z,116.70
2022-11-28T01:24:56.784Z,107.20
2022-11-28T01:28:24.879Z,106.10
2022-11-28T01:31:52.171Z,110.80
2022-11-28T01:35:20.708Z,104.10
2022-11-28T01:38:50.625Z,108.70
2022-11-28T01:42:21.375Z,106.10
2022-11-28T01:45:50.979Z,103.90
2022-11-28T01:49:23.339Z,102.20
2022-11-28T01:52:59.119Z,110.10
2022-11-28T01:56:30.496Z,105.50
2022-11-28T02:00:03.165Z,110.00
2022-11-28T02:03:45.446Z,122.30
2022-11-28T02:07:12.633Z,99.60
2022-11-28T02:10:51.431Z,104.40
2022-11-28T02:14:36.917Z,105.20
2022-11-28T02:18:23.176Z,106.00
2022-11-28T02:22:01.445Z,97.70
2022-11-28T02:25:53.230Z,104.60
2022-11-28T02:29:43.111Z,116.00
2022-11-28T02:33:22.813Z,115.80
2022-11-28T02:36:53.041Z,111.40
2022-11-28T02:40:29.471Z,109.40
2022-11-28T02:44:04.480Z,134.00
2022-11-28T02:47:38.001Z,128.80
2022-11-28T02:51:11.782Z,161.20
2022-11-28T02:54:40.587Z,165.50
2022-11-28T02:58:09.878Z,124.20
2022-11-28T03:01:39.483Z,116.60
2022-11-28T03:05:16.518Z,103.90
2022-11-28T03:09:00.272Z,112.70
2022-11-28T03:12:39.827Z,121.90
2022-11-28T03:16:20.440Z,134.60
2022-11-28T03:19:58.645Z,143.50
2022-11-28T03:23:34.704Z,161.60
2022-11-28T03:27:12.020Z,175.30
2022-11-28T03:30:44.794Z,157.70
2022-11-28T03:34:16.371Z,133.70
2022-11-28T03:37:52.868Z,114.00
2022-11-28T03:41:23.909Z,103.20
2022-11-28T03:44:55.979Z,98.10
2022-11-28T03:48:29.095Z,118.60
2022-11-28T03:52:01.463Z,109.60
2022-11-28T03:55:37.423Z,104.20
2022-11-28T03:59:09.505Z,136.80
2022-11-28T04:02:41.633Z,119.70
2022-11-28T04:06:16.187Z,137.40
2022-11-28T04:09:49.040Z,156.10
2022-11-28T04:13:27.535Z,145.60
2022-11-28T04:16:58.000Z,126.60
2022-11-28T04:20:31.710Z,182.10
2022-11-28T04:27:33.855Z,141.60
2022-11-28T04:31:06.193Z,162.50
2022-11-28T04:34:36.990Z,120.80
2022-11-28T04:38:07.678Z,102.50
2022-11-28T04:41:40.936Z,127.10
2022-11-28T04:45:15.876Z,117.90
2022-11-28T04:48:43.313Z,98.20
2022-11-28T04:52:14.819Z,136.70
2022-11-28T04:55:47.786Z,143.50
2022-11-28T04:59:16.304Z,96.70
2022-11-28T05:02:45.784Z,103.80
2022-11-28T05:06:12.583Z,85.60
2022-11-28T05:09:39.045Z,108.40
2022-11-28T05:13:05.488Z,92.40
2022-11-28T05:16:32.507Z,198.20
2022-11-28T05:19:59.473Z,106.50
2022-11-28T05:23:28.234Z,105.40
2022-11-28T05:26:55.256Z,201.20
2022-11-28T05:30:22.599Z,120.70
2022-11-28T05:33:49.696Z,243.10
2022-11-28T05:37:18.163Z,128.10
2022-11-28T05:40:45.151Z,91.60
2022-11-28T05:44:13.102Z,185.40
2022-11-28T05:47:40.150Z,119.90
2022-11-28T05:51:09.801Z,98.60
2022-11-28T05:54:36.882Z,106.20
2022-11-28T05:58:03.328Z,115.40
2022-11-28T06:01:32.086Z,200.50
2022-11-28T06:05:21.080Z,132.20
2022-11-28T06:08:52.928Z,92.80
2022-11-28T06:12:19.605Z,88.90
2022-11-28T06:15:47.170Z,191.40
2022-11-28T06:19:18.178Z,114.80
2022-11-28T06:22:47.427Z,117.00
2022-11-28T06:26:19.180Z,215.10
2022-11-28T06:29:47.536Z,184.80
2022-11-28T06:33:14.282Z,195.40
2022-11-28T06:36:40.762Z,300.70
2022-11-28T06:40:11.609Z,122.50
2022-11-28T06:43:40.813Z,169.10
2022-11-28T06:47:09.957Z,225.60
2022-11-28T06:50:37.789Z,369.70
2022-11-28T06:54:06.436Z,371.00
2022-11-28T06:57:33.237Z,112.60
2022-11-28T07:01:06.267Z,147.20
2022-11-28T07:04:33.490Z,168.00
2022-11-28T07:08:01.641Z,163.90
2022-11-28T07:11:30.204Z,124.90
2022-11-28T07:14:57.266Z,220.80
2022-11-28T07:18:27.395Z,115.80
2022-11-28T07:21:54.203Z,81.60
2022-11-28T07:25:21.110Z,119.00
2022-11-28T07:28:59.075Z,85.40
2022-11-28T07:32:28.536Z,72.60
2022-11-28T07:35:55.239Z,64.70
2022-11-28T07:39:21.994Z,81.20
2022-11-28T07:42:49.290Z,52.50
2022-11-28T07:46:18.038Z,76.10
2022-11-28T07:49:44.963Z,83.00
2022-11-28T07:53:12.473Z,87.50
2022-11-28T07:57:11.521Z,119.40
2022-11-28T08:00:29.278Z,66.10
2022-11-28T08:03:56.422Z,59.50
2022-11-28T08:07:23.128Z,70.10
2022-11-28T08:10:49.784Z,78.70
2022-11-28T08:14:16.124Z,65.00
2022-11-28T08:17:52.542Z,69.50
2022-11-28T08:21:21.310Z,59.20
2022-11-28T08:24:47.982Z,58.90
2022-11-28T08:28:14.431Z,59.90
2022-11-28T08:31:41.584Z,61.00
2022-11-28T08:35:09.060Z,62.50
2022-11-28T08:38:36.203Z,60.10
2022-11-28T08:42:02.364Z,66.50
2022-11-28T08:45:29.185Z,59.40
2022-11-28T08:48:55.432Z,59.50
2022-11-28T08:52:22.373Z,62.60
2022-11-28T08:55:49.225Z,83.70
2022-11-28T08:59:16.442Z,66.30
2022-11-28T09:02:42.887Z,75.20
2022-11-28T09:06:09.528Z,91.30
2022-11-28T09:09:35.868Z,72.10
2022-11-28T09:13:01.994Z,72.80
2022-11-28T09:16:28.665Z,72.30
2022-11-28T09:19:55.334Z,70.80
2022-11-28T09:23:21.400Z,80.20
2022-11-28T09:26:48.375Z,80.10
2022-11-28T09:30:18.247Z,74.40
2022-11-28T09:33:45.338Z,84.60
2022-11-28T09:37:12.392Z,82.50
2022-11-28T09:40:40.945Z,83.60
2022-11-28T09:44:15.753Z,79.30
2022-11-28T09:47:46.766Z,84.90
2022-11-28T09:51:26.788Z,88.90
2022-11-28T09:54:59.854Z,97.20
2022-11-28T09:58:35.066Z,92.80
2022-11-28T10:02:16.604Z,99.80
2022-11-28T10:05:50.984Z,105.80
2022-11-28T10:09:33.331Z,96.60
2022-11-28T10:13:07.033Z,104.60
2022-11-28T10:16:43.272Z,99.20
2022-11-28T10:20:17.288Z,94.20
2022-11-28T10:23:48.509Z,86.90
2022-11-28T10:27:21.303Z,97.40
2022-11-28T10:31:01.861Z,89.10
2022-11-28T10:34:32.825Z,90.60
2022-11-28T10:37:59.751Z,87.50
2022-11-28T10:41:33.663Z,82.80
2022-11-28T10:45:20.578Z,79.20
2022-11-28T10:48:53.587Z,80.80
2022-11-28T10:52:28.283Z,70.90
2022-11-28T10:56:11.267Z,71.10
2022-11-28T10:59:56.316Z,64.70
2022-11-28T11:03:28.578Z,71.30
2022-11-28T11:07:19.531Z,71.60
2022-11-28T11:10:53.778Z,69.80
2022-11-28T11:14:35.480Z,72.90
2022-11-28T11:18:06.493Z,62.50
2022-11-28T11:21:35.157Z,56.90
